sensor_id;sensor_type;location;lat;lon;timestamp;temperature;humidity
48007;DHT22;33771;48.180;11.400;2024-01-25T00:01:12;7.50;99.90
48007;DHT22;33771;48.180;11.400;2024-01-25T00:03:38;7.50;99.90
48007;DHT22;33771;48.180;11.400;2024-01-25T00:06:07;7.50;99.90
48007;DHT22;33771;48.180;11.400;2024-01-25T00:08:33;7.50;99.90
48007;DHT22;33771;48.180;11.400;2024-01-25T00:11:01;7.50;99.90
48007;DHT22;33771;48.180;11.400;2024-01-25T00:13:26;7.50;99.90
48007;DHT22;33771;48.180;11.400;2024-01-25T00:15:52;7.50;99.90
48007;DHT22;33771;48.180;11.400;2024-01-25T00:18:17;7.50;99.90
48007;DHT22;33771;48.180;11.400;2024-01-25T00:20:43;7.50;99.90
48007;DHT22;33771;48.180;11.400;2024-01-25T00:23:08;7.50;99.90
48007;DHT22;33771;48.180;11.400;2024-01-25T00:25:34;7.60;99.90
48007;DHT22;33771;48.180;11.400;2024-01-25T00:27:59;7.60;99.90
48007;DHT22;33771;48.180;11.400;2024-01-25T00:30:25;7.60;99.90
48007;DHT22;33771;48.180;11.400;2024-01-25T00:32:51;7.60;99.90
48007;DHT22;33771;48.180;11.400;2024-01-25T00:35:16;7.60;99.90
48007;DHT22;33771;48.180;11.400;2024-01-25T00:37:42;7.60;99.90
48007;DHT22;33771;48.180;11.400;2024-01-25T00:40:08;7.60;99.90
48007;DHT22;33771;48.180;11.400;2024-01-25T00:42:44;7.60;99.90
48007;DHT22;33771;48.180;11.400;2024-01-25T00:45:14;7.60;99.90
48007;DHT22;33771;48.180;11.400;2024-01-25T00:47:40;7.60;99.90
48007;DHT22;33771;48.180;11.400;2024-01-25T00:50:06;7.60;99.90
48007;DHT22;33771;48.180;11.400;2024-01-25T00:52:32;7.70;99.90
48007;DHT22;33771;48.180;11.400;2024-01-25T00:54:58;7.70;99.90
48007;DHT22;33771;48.180;11.400;2024-01-25T00:57:23;7.60;99.90
48007;DHT22;33771;48.180;11.400;2024-01-25T00:59:49;7.60;99.90
48007;DHT22;33771;48.180;11.400;2024-01-25T01:02:15;7.70;99.90
48007;DHT22;33771;48.180;11.400;2024-01-25T01:04:41;7.70;99.90
48007;DHT22;33771;48.180;11.400;2024-01-25T01:07:07;7.80;99.90
48007;DHT22;33771;48.180;11.400;2024-01-25T01:09:33;7.80;99.90
48007;DHT22;33771;48.180;11.400;2024-01-25T01:11:59;7.80;99.90
48007;DHT22;33771;48.180;11.400;2024-01-25T01:14:25;7.90;99.90
48007;DHT22;33771;48.180;11.400;2024-01-25T01:16:51;7.80;99.90
48007;DHT22;33771;48.180;11.400;2024-01-25T01:19:17;7.80;99.90
48007;DHT22;33771;48.180;11.400;2024-01-25T01:21:42;7.80;99.90
48007;DHT22;33771;48.180;11.400;2024-01-25T01:24:12;7.80;99.90
48007;DHT22;33771;48.180;11.400;2024-01-25T01:26:38;7.80;99.90
48007;DHT22;33771;48.180;11.400;2024-01-25T01:29:04;7.80;99.90
48007;DHT22;33771;48.180;11.400;2024-01-25T01:31:30;7.70;99.90
48007;DHT22;33771;48.180;11.400;2024-01-25T01:33:55;7.70;99.90
48007;DHT22;33771;48.180;11.400;2024-01-25T01:36:21;7.70;99.90
48007;DHT22;33771;48.180;11.400;2024-01-25T01:38:47;7.80;99.90
48007;DHT22;33771;48.180;11.400;2024-01-25T01:41:12;7.80;99.90
48007;DHT22;33771;48.180;11.400;2024-01-25T01:43:38;7.80;99.90
48007;DHT22;33771;48.180;11.400;2024-01-25T01:46:10;7.70;99.90
48007;DHT22;33771;48.180;11.400;2024-01-25T01:48:40;7.80;99.90
48007;DHT22;33771;48.180;11.400;2024-01-25T01:51:07;7.70;99.90
48007;DHT22;33771;48.180;11.400;2024-01-25T01:53:33;7.70;99.90
48007;DHT22;33771;48.180;11.400;2024-01-25T01:55:59;7.60;99.90
48007;DHT22;33771;48.180;11.400;2024-01-25T01:58:25;7.60;99.90
48007;DHT22;33771;48.180;11.400;2024-01-25T02:00:53;7.60;99.90
48007;DHT22;33771;48.180;11.400;2024-01-25T02:03:19;7.70;99.90
48007;DHT22;33771;48.180;11.400;2024-01-25T02:05:45;7.70;99.90
48007;DHT22;33771;48.180;11.400;2024-01-25T02:08:10;7.60;99.90
48007;DHT22;33771;48.180;11.400;2024-01-25T02:10:36;7.60;99.90
48007;DHT22;33771;48.180;11.400;2024-01-25T02:13:01;7.60;99.90
48007;DHT22;33771;48.180;11.400;2024-01-25T02:15:27;7.60;99.90
48007;DHT22;33771;48.180;11.400;2024-01-25T02:17:52;7.60;99.90
48007;DHT22;33771;48.180;11.400;2024-01-25T02:20:18;7.50;99.90
48007;DHT22;33771;48.180;11.400;2024-01-25T02:22:44;7.60;99.90
48007;DHT22;33771;48.180;11.400;2024-01-25T02:25:09;7.60;99.90
48007;DHT22;33771;48.180;11.400;2024-01-25T02:27:35;7.60;99.90
48007;DHT22;33771;48.180;11.400;2024-01-25T02:30:05;7.60;99.90
48007;DHT22;33771;48.180;11.400;2024-01-25T02:32:32;7.60;99.90
48007;DHT22;33771;48.180;11.400;2024-01-25T02:34:57;7.60;99.90
48007;DHT22;33771;48.180;11.400;2024-01-25T02:37:23;7.60;99.90
48007;DHT22;33771;48.180;11.400;2024-01-25T02:39:48;7.60;99.90
48007;DHT22;33771;48.180;11.400;2024-01-25T02:42:14;7.60;99.90
48007;DHT22;33771;48.180;11.400;2024-01-25T02:44:42;7.60;99.90
48007;DHT22;33771;48.180;11.400;2024-01-25T02:47:07;7.70;99.90
48007;DHT22;33771;48.180;11.400;2024-01-25T02:49:33;7.60;99.90
48007;DHT22;33771;48.180;11.400;2024-01-25T02:51:58;7.60;99.90
48007;DHT22;33771;48.180;11.400;2024-01-25T02:54:24;7.60;99.90
48007;DHT22;33771;48.180;11.400;2024-01-25T02:56:49;7.60;99.90
48007;DHT22;33771;48.180;11.400;2024-01-25T02:59:15;7.60;99.90
48007;DHT22;33771;48.180;11.400;2024-01-25T03:01:41;7.60;99.90
48007;DHT22;33771;48.180;11.400;2024-01-25T03:04:07;7.70;99.90
48007;DHT22;33771;48.180;11.400;2024-01-25T03:06:33;7.70;99.90
48007;DHT22;33771;48.180;11.400;2024-01-25T03:08:58;7.70;99.90
48007;DHT22;33771;48.180;11.400;2024-01-25T03:11:24;7.70;99.90
48007;DHT22;33771;48.180;11.400;2024-01-25T03:13:49;7.70;99.90
48007;DHT22;33771;48.180;11.400;2024-01-25T03:16:15;7.70;99.90
48007;DHT22;33771;48.180;11.400;2024-01-25T03:18:40;7.70;99.90
48007;DHT22;33771;48.180;11.400;2024-01-25T03:21:06;7.70;99.90
48007;DHT22;33771;48.180;11.400;2024-01-25T03:23:31;7.70;99.90
48007;DHT22;33771;48.180;11.400;2024-01-25T03:25:57;7.70;99.90
48007;DHT22;33771;48.180;11.400;2024-01-25T03:28:22;7.70;99.90
48007;DHT22;33771;48.180;11.400;2024-01-25T03:30:48;7.70;99.90
48007;DHT22;33771;48.180;11.400;2024-01-25T03:33:13;7.60;99.90
48007;DHT22;33771;48.180;11.400;2024-01-25T03:35:39;7.60;99.90
48007;DHT22;33771;48.180;11.400;2024-01-25T03:38:04;7.60;99.90
48007;DHT22;33771;48.180;11.400;2024-01-25T03:40:30;7.60;99.90
48007;DHT22;33771;48.180;11.400;2024-01-25T03:42:55;7.60;99.90
48007;DHT22;33771;48.180;11.400;2024-01-25T03:45:21;7.60;99.90
48007;DHT22;33771;48.180;11.400;2024-01-25T03:47:46;7.70;99.90
48007;DHT22;33771;48.180;11.400;2024-01-25T03:50:12;7.70;99.90
48007;DHT22;33771;48.180;11.400;2024-01-25T03:52:37;7.80;99.90
48007;DHT22;33771;48.180;11.400;2024-01-25T03:55:03;7.80;99.90
48007;DHT22;33771;48.180;11.400;2024-01-25T03:57:29;7.80;99.90
48007;DHT22;33771;48.180;11.400;2024-01-25T03:59:55;7.80;99.90
48007;DHT22;33771;48.180;11.400;2024-01-25T04:02:20;7.80;99.90
48007;DHT22;33771;48.180;11.400;2024-01-25T04:04:46;7.80;99.90
48007;DHT22;33771;48.180;11.400;2024-01-25T04:07:11;7.80;99.90
48007;DHT22;33771;48.180;11.400;2024-01-25T04:09:37;7.70;99.90
48007;DHT22;33771;48.180;11.400;2024-01-25T04:12:03;7.80;99.90
48007;DHT22;33771;48.180;11.400;2024-01-25T04:14:29;7.70;99.90
48007;DHT22;33771;48.180;11.400;2024-01-25T04:16:54;7.80;99.90
48007;DHT22;33771;48.180;11.400;2024-01-25T04:19:20;7.70;99.90
48007;DHT22;33771;48.180;11.400;2024-01-25T04:21:45;7.70;99.90
48007;DHT22;33771;48.180;11.400;2024-01-25T04:24:11;7.70;99.90
48007;DHT22;33771;48.180;11.400;2024-01-25T04:26:36;7.70;99.90
48007;DHT22;33771;48.180;11.400;2024-01-25T04:29:02;7.70;99.90
48007;DHT22;33771;48.180;11.400;2024-01-25T04:31:27;7.70;99.90
48007;DHT22;33771;48.180;11.400;2024-01-25T04:33:53;7.70;99.90
48007;DHT22;33771;48.180;11.400;2024-01-25T04:36:18;7.70;99.90
48007;DHT22;33771;48.180;11.400;2024-01-25T04:38:44;7.60;99.90
48007;DHT22;33771;48.180;11.400;2024-01-25T04:41:10;7.60;99.90
48007;DHT22;33771;48.180;11.400;2024-01-25T04:43:35;7.60;99.90
48007;DHT22;33771;48.180;11.400;2024-01-25T04:46:02;7.60;99.90
48007;DHT22;33771;48.180;11.400;2024-01-25T04:48:28;7.60;99.90
48007;DHT22;33771;48.180;11.400;2024-01-25T04:50:53;7.60;99.90
48007;DHT22;33771;48.180;11.400;2024-01-25T04:53:19;7.60;99.90
48007;DHT22;33771;48.180;11.400;2024-01-25T04:55:44;7.60;99.90
48007;DHT22;33771;48.180;11.400;2024-01-25T04:58:10;7.50;99.90
48007;DHT22;33771;48.180;11.400;2024-01-25T05:00:36;7.50;99.90
48007;DHT22;33771;48.180;11.400;2024-01-25T05:03:03;7.50;99.90
48007;DHT22;33771;48.180;11.400;2024-01-25T05:05:29;7.50;99.90
48007;DHT22;33771;48.180;11.400;2024-01-25T05:07:55;7.40;99.90
48007;DHT22;33771;48.180;11.400;2024-01-25T05:10:20;7.50;99.90
48007;DHT22;33771;48.180;11.400;2024-01-25T05:12:46;7.40;99.90
48007;DHT22;33771;48.180;11.400;2024-01-25T05:15:11;7.40;99.90
48007;DHT22;33771;48.180;11.400;2024-01-25T05:17:37;7.40;99.90
48007;DHT22;33771;48.180;11.400;2024-01-25T05:20:03;7.40;99.90
48007;DHT22;33771;48.180;11.400;2024-01-25T05:22:28;7.40;99.90
48007;DHT22;33771;48.180;11.400;2024-01-25T05:24:54;7.40;99.90
48007;DHT22;33771;48.180;11.400;2024-01-25T05:27:19;7.40;99.90
48007;DHT22;33771;48.180;11.400;2024-01-25T05:29:45;7.30;99.90
48007;DHT22;33771;48.180;11.400;2024-01-25T05:32:10;7.30;99.90
48007;DHT22;33771;48.180;11.400;2024-01-25T05:34:36;7.20;99.90
48007;DHT22;33771;48.180;11.400;2024-01-25T05:37:01;7.30;99.90
48007;DHT22;33771;48.180;11.400;2024-01-25T05:39:27;7.20;99.90
48007;DHT22;33771;48.180;11.400;2024-01-25T05:41:52;7.30;99.90
48007;DHT22;33771;48.180;11.400;2024-01-25T05:44:18;7.30;99.90
48007;DHT22;33771;48.180;11.400;2024-01-25T05:46:43;7.20;99.90
48007;DHT22;33771;48.180;11.400;2024-01-25T05:49:09;7.20;99.90
48007;DHT22;33771;48.180;11.400;2024-01-25T05:51:34;7.30;99.90
48007;DHT22;33771;48.180;11.400;2024-01-25T05:54:01;7.30;99.90
48007;DHT22;33771;48.180;11.400;2024-01-25T05:56:26;7.30;99.90
48007;DHT22;33771;48.180;11.400;2024-01-25T05:58:52;7.20;99.90
48007;DHT22;33771;48.180;11.400;2024-01-25T06:01:17;7.20;99.90
48007;DHT22;33771;48.180;11.400;2024-01-25T06:03:43;7.20;99.90
48007;DHT22;33771;48.180;11.400;2024-01-25T06:06:08;7.20;99.90
48007;DHT22;33771;48.180;11.400;2024-01-25T06:08:34;7.20;99.90
48007;DHT22;33771;48.180;11.400;2024-01-25T06:11:00;7.10;99.90
48007;DHT22;33771;48.180;11.400;2024-01-25T06:13:28;7.10;99.90
48007;DHT22;33771;48.180;11.400;2024-01-25T06:15:54;7.10;99.90
48007;DHT22;33771;48.180;11.400;2024-01-25T06:18:19;7.10;99.90
48007;DHT22;33771;48.180;11.400;2024-01-25T06:20:45;7.10;99.90
48007;DHT22;33771;48.180;11.400;2024-01-25T06:23:10;7.10;99.90
48007;DHT22;33771;48.180;11.400;2024-01-25T06:25:36;7.00;99.90
48007;DHT22;33771;48.180;11.400;2024-01-25T06:28:02;7.00;99.90
48007;DHT22;33771;48.180;11.400;2024-01-25T06:30:29;7.00;99.90
48007;DHT22;33771;48.180;11.400;2024-01-25T06:32:54;7.00;99.90
48007;DHT22;33771;48.180;11.400;2024-01-25T06:35:20;7.00;99.90
48007;DHT22;33771;48.180;11.400;2024-01-25T06:37:45;6.90;99.90
48007;DHT22;33771;48.180;11.400;2024-01-25T06:40:11;6.80;99.90
48007;DHT22;33771;48.180;11.400;2024-01-25T06:42:36;6.80;99.90
48007;DHT22;33771;48.180;11.400;2024-01-25T06:45:02;6.80;99.90
48007;DHT22;33771;48.180;11.400;2024-01-25T06:47:28;6.80;99.90
48007;DHT22;33771;48.180;11.400;2024-01-25T06:49:53;6.80;99.90
48007;DHT22;33771;48.180;11.400;2024-01-25T06:52:19;6.70;99.90
48007;DHT22;33771;48.180;11.400;2024-01-25T06:54:45;6.70;99.90
48007;DHT22;33771;48.180;11.400;2024-01-25T06:57:10;6.70;99.90
48007;DHT22;33771;48.180;11.400;2024-01-25T06:59:36;6.60;99.90
48007;DHT22;33771;48.180;11.400;2024-01-25T07:02:01;6.60;99.90
48007;DHT22;33771;48.180;11.400;2024-01-25T07:04:28;6.50;99.90
48007;DHT22;33771;48.180;11.400;2024-01-25T07:06:54;6.50;99.90
48007;DHT22;33771;48.180;11.400;2024-01-25T07:09:20;6.40;99.90
48007;DHT22;33771;48.180;11.400;2024-01-25T07:11:45;6.40;99.90
48007;DHT22;33771;48.180;11.400;2024-01-25T07:14:11;6.30;99.90
48007;DHT22;33771;48.180;11.400;2024-01-25T07:16:37;6.30;99.90
48007;DHT22;33771;48.180;11.400;2024-01-25T07:19:03;6.30;99.90
48007;DHT22;33771;48.180;11.400;2024-01-25T07:21:28;6.20;99.90
48007;DHT22;33771;48.180;11.400;2024-01-25T07:24:01;6.20;99.90
48007;DHT22;33771;48.180;11.400;2024-01-25T07:26:27;6.20;99.90
48007;DHT22;33771;48.180;11.400;2024-01-25T07:28:53;6.20;99.90
48007;DHT22;33771;48.180;11.400;2024-01-25T07:31:26;6.10;99.90
48007;DHT22;33771;48.180;11.400;2024-01-25T07:33:52;6.10;99.90
48007;DHT22;33771;48.180;11.400;2024-01-25T07:36:18;6.10;99.90
48007;DHT22;33771;48.180;11.400;2024-01-25T07:38:44;6.10;99.90
48007;DHT22;33771;48.180;11.400;2024-01-25T07:41:12;6.00;99.90
48007;DHT22;33771;48.180;11.400;2024-01-25T07:43:38;6.00;99.90
48007;DHT22;33771;48.180;11.400;2024-01-25T07:46:03;6.10;99.90
48007;DHT22;33771;48.180;11.400;2024-01-25T07:48:29;6.10;99.90
48007;DHT22;33771;48.180;11.400;2024-01-25T07:50:54;6.10;99.90
48007;DHT22;33771;48.180;11.400;2024-01-25T07:53:20;6.10;99.90
48007;DHT22;33771;48.180;11.400;2024-01-25T07:55:45;6.20;99.90
48007;DHT22;33771;48.180;11.400;2024-01-25T07:58:11;6.20;99.90
48007;DHT22;33771;48.180;11.400;2024-01-25T08:00:36;6.30;99.90
48007;DHT22;33771;48.180;11.400;2024-01-25T08:03:02;6.40;99.90
48007;DHT22;33771;48.180;11.400;2024-01-25T08:05:28;6.50;99.90
48007;DHT22;33771;48.180;11.400;2024-01-25T08:07:53;6.60;99.90
48007;DHT22;33771;48.180;11.400;2024-01-25T08:10:19;6.60;99.90
48007;DHT22;33771;48.180;11.400;2024-01-25T08:12:44;6.60;99.90
48007;DHT22;33771;48.180;11.400;2024-01-25T08:15:13;6.60;99.90
48007;DHT22;33771;48.180;11.400;2024-01-25T08:17:38;6.70;99.90
48007;DHT22;33771;48.180;11.400;2024-01-25T08:20:04;6.70;99.90
48007;DHT22;33771;48.180;11.400;2024-01-25T08:22:31;6.80;99.90
48007;DHT22;33771;48.180;11.400;2024-01-25T08:24:57;6.80;99.90
48007;DHT22;33771;48.180;11.400;2024-01-25T08:27:23;6.90;99.90
48007;DHT22;33771;48.180;11.400;2024-01-25T08:29:48;7.00;99.90
48007;DHT22;33771;48.180;11.400;2024-01-25T08:32:14;7.00;99.90
48007;DHT22;33771;48.180;11.400;2024-01-25T08:34:39;7.10;99.90
48007;DHT22;33771;48.180;11.400;2024-01-25T08:37:05;7.10;99.90
48007;DHT22;33771;48.180;11.400;2024-01-25T08:39:30;7.10;99.90
48007;DHT22;33771;48.180;11.400;2024-01-25T08:41:56;7.10;99.90
48007;DHT22;33771;48.180;11.400;2024-01-25T08:44:25;7.10;99.90
48007;DHT22;33771;48.180;11.400;2024-01-25T08:46:51;7.10;99.90
48007;DHT22;33771;48.180;11.400;2024-01-25T08:49:17;7.20;99.90
48007;DHT22;33771;48.180;11.400;2024-01-25T08:51:42;7.20;99.90
48007;DHT22;33771;48.180;11.400;2024-01-25T08:54:08;7.30;99.90
48007;DHT22;33771;48.180;11.400;2024-01-25T08:56:34;7.30;99.90
48007;DHT22;33771;48.180;11.400;2024-01-25T08:59:00;7.30;99.90
48007;DHT22;33771;48.180;11.400;2024-01-25T09:01:25;7.30;99.90
48007;DHT22;33771;48.180;11.400;2024-01-25T09:03:51;7.40;99.90
48007;DHT22;33771;48.180;11.400;2024-01-25T09:06:17;7.50;99.90
48007;DHT22;33771;48.180;11.400;2024-01-25T09:08:43;7.50;99.90
48007;DHT22;33771;48.180;11.400;2024-01-25T09:11:08;7.60;99.90
48007;DHT22;33771;48.180;11.400;2024-01-25T09:13:34;7.70;99.90
48007;DHT22;33771;48.180;11.400;2024-01-25T09:15:59;7.80;99.90
48007;DHT22;33771;48.180;11.400;2024-01-25T09:18:25;7.90;99.90
48007;DHT22;33771;48.180;11.400;2024-01-25T09:20:50;8.00;99.90
48007;DHT22;33771;48.180;11.400;2024-01-25T09:23:16;8.10;99.90
48007;DHT22;33771;48.180;11.400;2024-01-25T09:25:42;8.00;99.90
48007;DHT22;33771;48.180;11.400;2024-01-25T09:28:08;8.10;99.90
48007;DHT22;33771;48.180;11.400;2024-01-25T09:30:34;8.10;99.90
48007;DHT22;33771;48.180;11.400;2024-01-25T09:32:59;8.10;99.90
48007;DHT22;33771;48.180;11.400;2024-01-25T09:35:25;8.10;99.90
48007;DHT22;33771;48.180;11.400;2024-01-25T09:37:50;8.10;99.90
48007;DHT22;33771;48.180;11.400;2024-01-25T09:40:20;8.20;99.90
48007;DHT22;33771;48.180;11.400;2024-01-25T09:42:47;8.20;99.90
48007;DHT22;33771;48.180;11.400;2024-01-25T09:45:16;8.30;99.90
48007;DHT22;33771;48.180;11.400;2024-01-25T09:47:42;8.30;99.90
48007;DHT22;33771;48.180;11.400;2024-01-25T09:50:08;8.40;99.90
48007;DHT22;33771;48.180;11.400;2024-01-25T09:52:34;8.50;99.90
48007;DHT22;33771;48.180;11.400;2024-01-25T09:55:01;8.50;99.90
48007;DHT22;33771;48.180;11.400;2024-01-25T09:57:28;8.60;99.90
48007;DHT22;33771;48.180;11.400;2024-01-25T09:59:55;8.70;99.90
48007;DHT22;33771;48.180;11.400;2024-01-25T10:02:21;8.80;99.90
48007;DHT22;33771;48.180;11.400;2024-01-25T10:04:49;8.80;99.90
48007;DHT22;33771;48.180;11.400;2024-01-25T10:07:16;8.90;99.90
48007;DHT22;33771;48.180;11.400;2024-01-25T10:09:41;8.90;99.90
48007;DHT22;33771;48.180;11.400;2024-01-25T10:12:10;9.00;99.90
48007;DHT22;33771;48.180;11.400;2024-01-25T10:14:36;8.90;99.90
48007;DHT22;33771;48.180;11.400;2024-01-25T10:17:01;8.90;99.90
48007;DHT22;33771;48.180;11.400;2024-01-25T10:19:27;8.90;99.90
48007;DHT22;33771;48.180;11.400;2024-01-25T10:21:53;8.90;99.90
48007;DHT22;33771;48.180;11.400;2024-01-25T10:24:18;8.70;99.90
48007;DHT22;33771;48.180;11.400;2024-01-25T10:26:44;8.70;99.90
48007;DHT22;33771;48.180;11.400;2024-01-25T10:29:09;8.80;99.90
48007;DHT22;33771;48.180;11.400;2024-01-25T10:31:38;8.70;99.90
48007;DHT22;33771;48.180;11.400;2024-01-25T10:34:08;8.70;99.90
48007;DHT22;33771;48.180;11.400;2024-01-25T10:36:37;8.80;99.90
48007;DHT22;33771;48.180;11.400;2024-01-25T10:39:03;8.70;99.90
48007;DHT22;33771;48.180;11.400;2024-01-25T10:41:31;8.80;99.90
48007;DHT22;33771;48.180;11.400;2024-01-25T10:43:57;8.80;99.90
48007;DHT22;33771;48.180;11.400;2024-01-25T10:46:23;8.80;99.90
48007;DHT22;33771;48.180;11.400;2024-01-25T10:48:49;8.80;99.90
48007;DHT22;33771;48.180;11.400;2024-01-25T10:51:16;8.80;99.90
48007;DHT22;33771;48.180;11.400;2024-01-25T10:53:44;8.70;99.90
48007;DHT22;33771;48.180;11.400;2024-01-25T10:56:10;8.60;99.90
48007;DHT22;33771;48.180;11.400;2024-01-25T10:58:35;8.50;99.90
48007;DHT22;33771;48.180;11.400;2024-01-25T11:01:01;8.50;99.90
48007;DHT22;33771;48.180;11.400;2024-01-25T11:03:29;8.40;99.90
48007;DHT22;33771;48.180;11.400;2024-01-25T11:06:09;8.50;99.90
48007;DHT22;33771;48.180;11.400;2024-01-25T11:08:38;8.50;99.90
48007;DHT22;33771;48.180;11.400;2024-01-25T11:11:06;8.50;99.90
48007;DHT22;33771;48.180;11.400;2024-01-25T11:13:32;8.50;99.90
48007;DHT22;33771;48.180;11.400;2024-01-25T11:15:58;8.50;99.90
48007;DHT22;33771;48.180;11.400;2024-01-25T11:18:27;8.60;99.90
48007;DHT22;33771;48.180;11.400;2024-01-25T11:20:52;8.70;99.90
48007;DHT22;33771;48.180;11.400;2024-01-25T11:23:18;8.80;99.90
48007;DHT22;33771;48.180;11.400;2024-01-25T11:25:47;8.80;99.90
48007;DHT22;33771;48.180;11.400;2024-01-25T11:28:14;8.80;99.90
48007;DHT22;33771;48.180;11.400;2024-01-25T11:30:41;8.80;99.90
48007;DHT22;33771;48.180;11.400;2024-01-25T11:33:07;8.90;99.90
48007;DHT22;33771;48.180;11.400;2024-01-25T11:35:34;8.90;99.90
48007;DHT22;33771;48.180;11.400;2024-01-25T11:37:59;9.00;99.90
48007;DHT22;33771;48.180;11.400;2024-01-25T11:40:25;9.10;99.90
48007;DHT22;33771;48.180;11.400;2024-01-25T11:42:53;9.20;99.90
48007;DHT22;33771;48.180;11.400;2024-01-25T11:45:18;9.20;99.90
48007;DHT22;33771;48.180;11.400;2024-01-25T11:47:44;9.20;99.90
48007;DHT22;33771;48.180;11.400;2024-01-25T11:50:12;9.30;99.90
48007;DHT22;33771;48.180;11.400;2024-01-25T11:52:38;9.50;99.90
48007;DHT22;33771;48.180;11.400;2024-01-25T11:55:08;9.60;99.90
48007;DHT22;33771;48.180;11.400;2024-01-25T11:57:39;9.80;99.90
48007;DHT22;33771;48.180;11.400;2024-01-25T12:00:07;9.80;99.90
48007;DHT22;33771;48.180;11.400;2024-01-25T12:02:36;9.90;99.90
48007;DHT22;33771;48.180;11.400;2024-01-25T12:05:02;9.90;99.90
48007;DHT22;33771;48.180;11.400;2024-01-25T12:07:30;9.90;99.90
48007;DHT22;33771;48.180;11.400;2024-01-25T12:09:59;9.80;99.90
48007;DHT22;33771;48.180;11.400;2024-01-25T12:12:25;9.80;99.90
48007;DHT22;33771;48.180;11.400;2024-01-25T12:14:51;9.80;99.90
48007;DHT22;33771;48.180;11.400;2024-01-25T12:17:17;9.80;99.90
48007;DHT22;33771;48.180;11.400;2024-01-25T12:19:43;9.80;99.90
48007;DHT22;33771;48.180;11.400;2024-01-25T12:22:08;9.90;99.90
48007;DHT22;33771;48.180;11.400;2024-01-25T12:24:35;9.90;99.90
48007;DHT22;33771;48.180;11.400;2024-01-25T12:27:00;10.00;99.90
48007;DHT22;33771;48.180;11.400;2024-01-25T12:29:26;10.00;99.90
48007;DHT22;33771;48.180;11.400;2024-01-25T12:31:51;10.10;99.90
48007;DHT22;33771;48.180;11.400;2024-01-25T12:34:17;10.20;99.90
48007;DHT22;33771;48.180;11.400;2024-01-25T12:36:43;10.20;99.90
48007;DHT22;33771;48.180;11.400;2024-01-25T12:39:08;10.20;99.90
48007;DHT22;33771;48.180;11.400;2024-01-25T12:41:35;10.30;99.90
48007;DHT22;33771;48.180;11.400;2024-01-25T12:44:00;10.30;99.90
48007;DHT22;33771;48.180;11.400;2024-01-25T12:46:26;10.30;99.90
48007;DHT22;33771;48.180;11.400;2024-01-25T12:48:51;10.30;99.90
48007;DHT22;33771;48.180;11.400;2024-01-25T12:51:20;10.30;99.90
48007;DHT22;33771;48.180;11.400;2024-01-25T12:53:52;10.40;99.90
48007;DHT22;33771;48.180;11.400;2024-01-25T12:56:18;10.30;99.90
48007;DHT22;33771;48.180;11.400;2024-01-25T12:58:43;10.30;99.90
48007;DHT22;33771;48.180;11.400;2024-01-25T13:01:09;10.30;99.90
48007;DHT22;33771;48.180;11.400;2024-01-25T13:03:37;10.20;99.90
48007;DHT22;33771;48.180;11.400;2024-01-25T13:06:02;10.00;99.90
48007;DHT22;33771;48.180;11.400;2024-01-25T13:08:30;10.00;99.90
48007;DHT22;33771;48.180;11.400;2024-01-25T13:10:56;9.90;99.90
48007;DHT22;33771;48.180;11.400;2024-01-25T13:13:50;9.80;99.90
48007;DHT22;33771;48.180;11.400;2024-01-25T13:16:23;9.80;99.90
48007;DHT22;33771;48.180;11.400;2024-01-25T13:18:49;9.80;99.90
48007;DHT22;33771;48.180;11.400;2024-01-25T13:21:14;9.80;99.90
48007;DHT22;33771;48.180;11.400;2024-01-25T13:23:40;9.80;99.90
48007;DHT22;33771;48.180;11.400;2024-01-25T13:26:05;9.90;99.90
48007;DHT22;33771;48.180;11.400;2024-01-25T13:28:31;9.90;99.90
48007;DHT22;33771;48.180;11.400;2024-01-25T13:30:57;10.10;99.90
48007;DHT22;33771;48.180;11.400;2024-01-25T13:33:24;10.20;99.90
48007;DHT22;33771;48.180;11.400;2024-01-25T13:35:50;10.20;99.90
48007;DHT22;33771;48.180;11.400;2024-01-25T13:38:15;10.20;99.90
48007;DHT22;33771;48.180;11.400;2024-01-25T13:40:42;10.20;99.90
48007;DHT22;33771;48.180;11.400;2024-01-25T13:43:08;10.20;99.90
48007;DHT22;33771;48.180;11.400;2024-01-25T13:45:33;10.20;99.90
48007;DHT22;33771;48.180;11.400;2024-01-25T13:47:59;10.20;99.90
48007;DHT22;33771;48.180;11.400;2024-01-25T13:50:24;10.10;99.90
48007;DHT22;33771;48.180;11.400;2024-01-25T13:52:50;10.00;99.90
48007;DHT22;33771;48.180;11.400;2024-01-25T13:55:15;9.90;99.90
48007;DHT22;33771;48.180;11.400;2024-01-25T13:57:41;9.90;99.90
48007;DHT22;33771;48.180;11.400;2024-01-25T14:00:07;9.80;99.90
48007;DHT22;33771;48.180;11.400;2024-01-25T14:02:33;9.70;99.90
48007;DHT22;33771;48.180;11.400;2024-01-25T14:04:59;9.60;99.90
48007;DHT22;33771;48.180;11.400;2024-01-25T14:07:25;9.50;99.90
48007;DHT22;33771;48.180;11.400;2024-01-25T14:09:51;9.50;99.90
48007;DHT22;33771;48.180;11.400;2024-01-25T14:12:17;9.40;99.90
48007;DHT22;33771;48.180;11.400;2024-01-25T14:14:43;9.40;99.90
48007;DHT22;33771;48.180;11.400;2024-01-25T14:17:08;9.40;99.90
48007;DHT22;33771;48.180;11.400;2024-01-25T14:19:34;9.30;99.90
48007;DHT22;33771;48.180;11.400;2024-01-25T14:22:00;9.30;99.90
48007;DHT22;33771;48.180;11.400;2024-01-25T14:24:25;9.30;99.90
48007;DHT22;33771;48.180;11.400;2024-01-25T14:26:51;9.30;99.90
48007;DHT22;33771;48.180;11.400;2024-01-25T14:29:16;9.40;99.90
48007;DHT22;33771;48.180;11.400;2024-01-25T14:31:42;9.30;99.90
48007;DHT22;33771;48.180;11.400;2024-01-25T14:34:08;9.30;99.90
48007;DHT22;33771;48.180;11.400;2024-01-25T14:36:34;9.30;99.90
48007;DHT22;33771;48.180;11.400;2024-01-25T14:39:00;9.30;99.90
48007;DHT22;33771;48.180;11.400;2024-01-25T14:41:27;9.30;99.90
48007;DHT22;33771;48.180;11.400;2024-01-25T14:43:53;9.20;99.90
48007;DHT22;33771;48.180;11.400;2024-01-25T14:46:18;9.10;99.90
48007;DHT22;33771;48.180;11.400;2024-01-25T14:48:44;9.20;99.90
48007;DHT22;33771;48.180;11.400;2024-01-25T14:51:09;9.10;99.90
48007;DHT22;33771;48.180;11.400;2024-01-25T14:53:35;9.00;99.90
48007;DHT22;33771;48.180;11.400;2024-01-25T14:56:00;9.00;99.90
48007;DHT22;33771;48.180;11.400;2024-01-25T14:58:26;8.90;99.90
48007;DHT22;33771;48.180;11.400;2024-01-25T15:00:52;8.90;99.90
48007;DHT22;33771;48.180;11.400;2024-01-25T15:03:21;8.80;99.90
48007;DHT22;33771;48.180;11.400;2024-01-25T15:05:46;8.70;99.90
48007;DHT22;33771;48.180;11.400;2024-01-25T15:08:12;8.70;99.90
48007;DHT22;33771;48.180;11.400;2024-01-25T15:10:38;8.70;99.90
48007;DHT22;33771;48.180;11.400;2024-01-25T15:13:03;8.70;99.90
48007;DHT22;33771;48.180;11.400;2024-01-25T15:15:29;8.60;99.90
48007;DHT22;33771;48.180;11.400;2024-01-25T15:17:59;8.60;99.90
48007;DHT22;33771;48.180;11.400;2024-01-25T15:20:24;8.50;99.90
48007;DHT22;33771;48.180;11.400;2024-01-25T15:22:50;8.50;99.90